Terminal Aerodrome Forecast
Issued by NWS Charleston, SC

Home | Current Version | Previous Version | Text Only | Print | Product List | Glossary On
Versions: 1 2 3 4 5 6 7 8 9 10 11 12 13 14
000
FTUS42 KCHS 251954 AAA
TAFSAV
TAF AMD
KSAV 251954Z 2520/2618 13012KT P6SM SCT025 BKN040
     FM260000 12006KT P6SM SCT015 SCT250
     FM260600 VRB04KT 6SM MIFG FEW005 BKN015
     FM261600 14012KT P6SM BKN050=

USA.gov is the U.S. government's official web portal to all federal, state and local government web resources and services.